createdAt,value
2023-05-15T00:02:16.552Z,100622.16
2023-05-15T00:04:43.275Z,100623.81
2023-05-15T00:07:10.314Z,100617.91
2023-05-15T00:09:36.952Z,100614.47
2023-05-15T00:12:05.316Z,100610.22
2023-05-15T00:14:32.347Z,100601.66
2023-05-15T00:17:00.158Z,100591.41
2023-05-15T00:19:26.658Z,100602.50
2023-05-15T00:21:53.462Z,100595.66
2023-05-15T00:24:21.922Z,100591.38
2023-05-15T00:26:48.897Z,100585.41
2023-05-15T00:29:15.983Z,100578.59
2023-05-15T00:31:42.899Z,100575.19
2023-05-15T00:34:09.733Z,100581.97
2023-05-15T00:36:37.432Z,100575.97
2023-05-15T00:39:04.347Z,100576.81
2023-05-15T00:41:31.276Z,100569.97
2023-05-15T00:43:58.385Z,100566.53
2023-05-15T00:46:27.316Z,100558.88
2023-05-15T00:48:55.130Z,100561.41
2023-05-15T00:51:21.949Z,100559.69
2023-05-15T00:53:50.459Z,100561.41
2023-05-15T00:56:17.898Z,100554.59
2023-05-15T00:58:46.679Z,100554.56
2023-05-15T01:01:16.474Z,100548.56
2023-05-15T01:03:46.963Z,100543.41
2023-05-15T01:06:13.971Z,100539.97
2023-05-15T01:08:46.096Z,100539.97
2023-05-15T01:11:14.958Z,100540.78
2023-05-15T01:13:41.801Z,100537.34
2023-05-15T01:16:09.433Z,100538.19
2023-05-15T01:18:37.537Z,100532.22
2023-05-15T01:21:10.359Z,100537.31
2023-05-15T01:23:55.282Z,100537.31
2023-05-15T01:26:59.761Z,100535.59
2023-05-15T01:29:46.171Z,100537.31
2023-05-15T01:32:28.901Z,100534.72
2023-05-15T01:35:04.530Z,100536.50
2023-05-15T01:37:35.009Z,100528.00
2023-05-15T01:40:07.638Z,100529.66
2023-05-15T01:42:37.227Z,100522.78
2023-05-15T01:45:05.239Z,100521.06
2023-05-15T01:47:44.896Z,100523.56
2023-05-15T01:50:15.385Z,100514.13
2023-05-15T01:52:48.072Z,100520.06
2023-05-15T01:55:15.385Z,100517.53
2023-05-15T01:57:43.219Z,100517.53
2023-05-15T02:00:11.825Z,100509.00
2023-05-15T02:02:38.972Z,100503.06
2023-05-15T02:05:06.676Z,100515.81
2023-05-15T02:07:34.364Z,100508.16
2023-05-15T02:10:02.718Z,100512.31
2023-05-15T02:12:30.719Z,100508.88
2023-05-15T02:14:58.549Z,100508.00
2023-05-15T02:17:26.641Z,100513.94
2023-05-15T02:19:53.105Z,100510.56
2023-05-15T02:22:20.000Z,100509.69
2023-05-15T02:24:47.392Z,100510.50
2023-05-15T02:27:22.740Z,100510.47
2023-05-15T02:30:13.558Z,100509.59
2023-05-15T02:32:49.812Z,100507.06
2023-05-15T02:35:32.077Z,100502.75
2023-05-15T02:38:02.874Z,100496.72
2023-05-15T02:40:32.041Z,100494.13
2023-05-15T02:43:00.331Z,100489.06
2023-05-15T02:45:27.415Z,100481.41
2023-05-15T02:47:54.679Z,100481.38
2023-05-15T02:50:21.847Z,100480.50
2023-05-15T02:52:48.203Z,100482.22
2023-05-15T02:55:15.051Z,100473.63
2023-05-15T02:57:41.569Z,100473.63
2023-05-15T03:00:08.810Z,100467.69
2023-05-15T03:02:35.149Z,100464.22
2023-05-15T03:05:01.918Z,100459.09
2023-05-15T03:07:29.628Z,100459.09
2023-05-15T03:09:56.187Z,100454.00
2023-05-15T03:12:22.698Z,100449.72
2023-05-15T03:14:49.233Z,100455.69
2023-05-15T03:17:16.121Z,100448.88
2023-05-15T03:19:43.017Z,100438.69
2023-05-15T03:22:09.771Z,100445.44
2023-05-15T03:24:36.326Z,100446.28
2023-05-15T03:27:03.125Z,100443.69
2023-05-15T03:29:29.870Z,100447.09
2023-05-15T03:31:56.740Z,100447.09
2023-05-15T03:34:23.180Z,100444.53
2023-05-15T03:36:50.083Z,100442.06
2023-05-15T03:39:16.800Z,100442.97
2023-05-15T03:41:43.388Z,100443.00
2023-05-15T03:44:10.194Z,100437.91
2023-05-15T03:46:36.821Z,100431.97
2023-05-15T03:49:03.490Z,100436.19
2023-05-15T03:51:30.112Z,100440.44
2023-05-15T03:53:57.212Z,100433.63
2023-05-15T03:56:24.235Z,100428.59
2023-05-15T03:58:51.158Z,100429.44
2023-05-15T04:01:17.949Z,100426.06
2023-05-15T04:03:44.535Z,100424.38
2023-05-15T04:06:11.300Z,100423.56
2023-05-15T04:08:39.626Z,100429.56
2023-05-15T04:11:07.622Z,100432.97
2023-05-15T04:13:34.013Z,100427.06
2023-05-15T04:16:00.957Z,100425.38
2023-05-15T04:18:27.485Z,100428.78
2023-05-15T04:20:54.075Z,100426.22
2023-05-15T04:23:20.947Z,100425.41
2023-05-15T04:25:47.847Z,100429.69
2023-05-15T04:28:15.371Z,100425.47
2023-05-15T04:30:41.989Z,100421.25
2023-05-15T04:33:08.729Z,100416.19
2023-05-15T04:35:35.543Z,100406.09
2023-05-15T04:38:03.088Z,100406.19
2023-05-15T04:40:29.932Z,100416.41
2023-05-15T04:42:58.142Z,100412.22
2023-05-15T04:45:24.992Z,100415.69
2023-05-15T04:47:51.736Z,100414.03
2023-05-15T04:50:18.659Z,100405.53
2023-05-15T04:52:45.306Z,100412.38
2023-05-15T04:55:11.883Z,100414.09
2023-05-15T04:57:38.395Z,100407.28
2023-05-15T05:00:06.006Z,100407.25
2023-05-15T05:02:32.414Z,100408.97
2023-05-15T05:04:59.533Z,100399.56
2023-05-15T05:07:26.142Z,100403.81
2023-05-15T05:09:54.186Z,100399.53
2023-05-15T05:12:20.726Z,100403.75
2023-05-15T05:14:47.176Z,100401.19
2023-05-15T05:17:13.990Z,100395.22
2023-05-15T05:19:42.184Z,100396.06
2023-05-15T05:22:09.114Z,100395.19
2023-05-15T05:24:35.828Z,100387.50
2023-05-15T05:27:02.348Z,100393.47
2023-05-15T05:29:30.359Z,100390.91
2023-05-15T05:31:57.526Z,100388.34
2023-05-15T05:34:24.629Z,100389.22
2023-05-15T05:36:51.097Z,100381.53
2023-05-15T05:39:19.117Z,100372.94
2023-05-15T05:41:45.914Z,100371.22
2023-05-15T05:44:13.459Z,100380.59
2023-05-15T05:46:40.075Z,100381.38
2023-05-15T05:49:06.625Z,100374.50
2023-05-15T05:51:36.375Z,100377.91
2023-05-15T05:54:02.984Z,100380.38
2023-05-15T05:56:29.978Z,100376.06
2023-05-15T05:58:56.577Z,100374.28
2023-05-15T06:01:26.394Z,100369.06
2023-05-15T06:03:53.162Z,100360.44
2023-05-15T06:06:19.750Z,100357.75
2023-05-15T06:08:46.227Z,100348.09
2023-05-15T06:11:13.827Z,100355.75
2023-05-15T06:13:40.367Z,100356.53
2023-05-15T06:16:08.965Z,100353.00
2023-05-15T06:18:35.543Z,100353.72
2023-05-15T06:21:02.187Z,100353.63
2023-05-15T06:23:28.753Z,100357.81
2023-05-15T06:25:55.260Z,100353.41
2023-05-15T06:28:22.009Z,100337.91
2023-05-15T06:30:48.830Z,100343.75
2023-05-15T06:33:16.164Z,100345.41
2023-05-15T06:35:42.745Z,100342.72
2023-05-15T06:38:09.179Z,100344.28
2023-05-15T06:40:35.985Z,100338.97
2023-05-15T06:43:02.742Z,100333.66
2023-05-15T06:45:29.767Z,100334.28
2023-05-15T06:47:56.605Z,100334.22
2023-05-15T06:50:24.724Z,100332.38
2023-05-15T06:52:51.655Z,100327.88
2023-05-15T06:55:18.451Z,100320.88
2023-05-15T06:57:44.967Z,100313.84
2023-05-15T07:00:13.847Z,100321.38
2023-05-15T07:02:40.607Z,100315.25
2023-05-15T07:05:07.592Z,100316.69
2023-05-15T07:07:34.133Z,100315.81
2023-05-15T07:10:01.394Z,100311.38
2023-05-15T07:12:27.887Z,100308.66
2023-05-15T07:14:54.649Z,100309.34
2023-05-15T07:17:21.219Z,100312.69
2023-05-15T07:19:47.743Z,100303.19
2023-05-15T07:22:14.489Z,100297.03
2023-05-15T07:24:41.372Z,100300.41
2023-05-15T07:27:07.981Z,100290.72
2023-05-15T07:29:34.803Z,100288.06
2023-05-15T07:32:01.697Z,100291.34
2023-05-15T07:34:28.261Z,100286.69
2023-05-15T07:36:54.855Z,100285.53
2023-05-15T07:39:21.442Z,100281.78
2023-05-15T07:41:48.286Z,100276.56
2023-05-15T07:44:15.521Z,100284.94
2023-05-15T07:46:42.176Z,100284.94
2023-05-15T07:49:08.787Z,100279.56
2023-05-15T07:51:35.615Z,100281.34
2023-05-15T07:54:04.817Z,100283.97
2023-05-15T07:56:32.196Z,100281.44
2023-05-15T07:58:58.719Z,100274.41
2023-05-15T08:01:25.632Z,100285.38
2023-05-15T08:03:52.260Z,100276.91
2023-05-15T08:06:19.175Z,100280.31
2023-05-15T08:08:45.883Z,100275.94
2023-05-15T08:11:12.492Z,100273.34
2023-05-15T08:13:39.509Z,100264.66
2023-05-15T08:16:06.130Z,100265.41
2023-05-15T08:18:33.862Z,100264.44
2023-05-15T08:21:02.007Z,100261.94
2023-05-15T08:23:29.665Z,100265.34
2023-05-15T08:25:56.238Z,100254.19
2023-05-15T08:28:22.885Z,100251.69
2023-05-15T08:30:49.674Z,100251.72
2023-05-15T08:33:16.510Z,100244.81
2023-05-15T08:35:43.092Z,100235.41
2023-05-15T08:38:09.627Z,100229.44
2023-05-15T08:40:39.482Z,100229.47
2023-05-15T08:43:13.206Z,100230.31
2023-05-15T08:45:41.203Z,100230.19
2023-05-15T08:48:11.572Z,100230.72
2023-05-15T08:50:40.334Z,100226.44
2023-05-15T08:53:08.489Z,100222.16
2023-05-15T08:55:35.620Z,100226.50
2023-05-15T08:58:02.753Z,100216.13
2023-05-15T09:00:30.857Z,100217.88
2023-05-15T09:03:00.258Z,100216.97
2023-05-15T09:05:30.639Z,100215.09
2023-05-15T09:07:59.605Z,100206.44
2023-05-15T09:10:27.230Z,100214.16
2023-05-15T09:12:56.736Z,100215.84
2023-05-15T09:15:25.411Z,100215.66
2023-05-15T09:17:55.066Z,100211.25
2023-05-15T09:20:31.636Z,100206.06
2023-05-15T09:23:00.444Z,100213.81
2023-05-15T09:25:36.863Z,100214.63
2023-05-15T09:28:29.928Z,100214.47
2023-05-15T09:30:59.545Z,100210.06
2023-05-15T09:33:31.106Z,100207.34
2023-05-15T09:35:57.961Z,100210.66
2023-05-15T09:38:24.732Z,100206.28
2023-05-15T09:41:00.936Z,100211.19
2023-05-15T09:43:29.572Z,100202.31
2023-05-15T09:45:56.488Z,100203.94
2023-05-15T09:48:23.412Z,100196.00
2023-05-15T09:50:49.857Z,100191.59
2023-05-15T09:53:21.419Z,100185.63
2023-05-15T09:55:49.251Z,100191.41
2023-05-15T09:58:18.018Z,100191.19
2023-05-15T10:00:48.694Z,100195.03
2023-05-15T10:03:18.661Z,100193.19
2023-05-15T10:05:45.839Z,100190.56
2023-05-15T10:08:12.780Z,100196.41
2023-05-15T10:10:40.868Z,100193.50
2023-05-15T10:13:08.582Z,100188.22
2023-05-15T10:15:35.418Z,100189.25
2023-05-15T10:18:04.723Z,100188.88
2023-05-15T10:20:33.358Z,100186.44
2023-05-15T10:23:04.086Z,100188.09
2023-05-15T10:25:42.724Z,100185.28
2023-05-15T10:28:10.665Z,100186.84
2023-05-15T10:30:38.694Z,100184.03
2023-05-15T10:33:07.149Z,100182.56
2023-05-15T10:35:40.089Z,100183.16
2023-05-15T10:38:07.310Z,100180.59
2023-05-15T10:40:37.277Z,100189.81
2023-05-15T10:43:05.123Z,100180.31
2023-05-15T10:45:32.720Z,100192.47
2023-05-15T10:48:00.306Z,100186.97
2023-05-15T10:50:27.641Z,100183.38
2023-05-15T10:52:55.368Z,100179.28
2023-05-15T10:55:23.034Z,100176.59
2023-05-15T10:57:50.137Z,100171.66
2023-05-15T11:00:22.834Z,100173.53
2023-05-15T11:02:51.052Z,100163.53
2023-05-15T11:05:17.786Z,100164.22
2023-05-15T11:07:44.260Z,100161.31
2023-05-15T11:10:40.263Z,100154.94
2023-05-15T11:13:06.892Z,100155.13
2023-05-15T11:15:44.617Z,100156.25
2023-05-15T11:18:13.996Z,100150.75
2023-05-15T11:20:43.729Z,100146.41
2023-05-15T11:23:11.510Z,100145.06
2023-05-15T11:25:38.688Z,100146.53
2023-05-15T11:28:05.709Z,100140.59
2023-05-15T11:30:40.992Z,100133.63
2023-05-15T11:33:11.040Z,100129.78
2023-05-15T11:35:39.492Z,100124.47
2023-05-15T11:38:36.830Z,100115.41
2023-05-15T11:41:03.670Z,100123.28
2023-05-15T11:43:35.618Z,100116.97
2023-05-15T11:46:10.775Z,100106.69
2023-05-15T11:48:42.670Z,100106.38
2023-05-15T11:51:21.483Z,100102.50
2023-05-15T11:53:53.414Z,100091.84
2023-05-15T11:56:22.931Z,100094.19
2023-05-15T11:58:56.876Z,100091.53
2023-05-15T12:01:23.716Z,100093.34
2023-05-15T12:03:51.037Z,100085.66
2023-05-15T12:06:18.294Z,100082.53
2023-05-15T12:08:50.297Z,100081.91
2023-05-15T12:11:16.857Z,100080.72
2023-05-15T12:13:43.671Z,100079.38
2023-05-15T12:16:10.213Z,100069.38
2023-05-15T12:18:37.069Z,100075.19
2023-05-15T12:21:03.970Z,100078.56
2023-05-15T12:23:32.105Z,100078.63
2023-05-15T12:26:02.683Z,100078.06
2023-05-15T12:28:30.653Z,100081.56
2023-05-15T12:30:58.578Z,100073.13
2023-05-15T12:33:25.362Z,100079.59
2023-05-15T12:35:58.284Z,100070.44
2023-05-15T12:38:27.005Z,100076.38
2023-05-15T12:40:53.917Z,100066.47
2023-05-15T12:43:23.544Z,100055.53
2023-05-15T12:45:53.045Z,100060.41
2023-05-15T12:48:20.815Z,100059.91
2023-05-15T12:50:47.646Z,100057.03
2023-05-15T12:53:15.026Z,100058.34
2023-05-15T12:55:44.792Z,100055.75
2023-05-15T12:58:13.088Z,100059.56
2023-05-15T13:00:42.433Z,100055.47
2023-05-15T13:03:12.064Z,100060.22
2023-05-15T13:05:41.954Z,100048.28
2023-05-15T13:08:08.551Z,100050.88
2023-05-15T13:10:37.645Z,100041.50
2023-05-15T13:13:04.466Z,100046.94
2023-05-15T13:15:30.951Z,100048.97
2023-05-15T13:18:05.211Z,100047.22
2023-05-15T13:20:36.021Z,100051.22
2023-05-15T13:23:03.162Z,100054.75
2023-05-15T13:25:32.171Z,100073.91
2023-05-15T13:28:01.432Z,100084.06
2023-05-15T13:30:28.665Z,100089.81
2023-05-15T13:32:56.117Z,100113.63
2023-05-15T13:35:23.000Z,100114.69
2023-05-15T13:37:49.801Z,100119.38
2023-05-15T13:40:16.759Z,100114.97
2023-05-15T13:42:44.012Z,100113.69
2023-05-15T13:45:13.502Z,100118.41
2023-05-15T13:47:40.969Z,100122.03
2023-05-15T13:50:15.684Z,100124.81
2023-05-15T13:52:44.206Z,100134.44
2023-05-15T13:55:11.365Z,100126.59
2023-05-15T13:57:42.490Z,100129.56
2023-05-15T14:00:11.696Z,100127.38
2023-05-15T14:02:38.902Z,100120.75
2023-05-15T14:05:05.810Z,100130.31
2023-05-15T14:07:32.440Z,100131.38
2023-05-15T14:09:59.202Z,100140.06
2023-05-15T14:12:25.692Z,100152.44
2023-05-15T14:14:52.306Z,100155.91
2023-05-15T14:17:19.772Z,100167.09
2023-05-15T14:19:48.077Z,100171.59
2023-05-15T14:22:15.045Z,100181.06
2023-05-15T14:24:42.533Z,100180.25
2023-05-15T14:27:09.520Z,100178.69
2023-05-15T14:29:36.223Z,100165.81
2023-05-15T14:32:02.908Z,100163.03
2023-05-15T14:34:30.999Z,100147.53
2023-05-15T14:36:57.957Z,100145.03
2023-05-15T14:39:25.476Z,100136.63
2023-05-15T14:41:51.961Z,100131.25
2023-05-15T14:44:18.564Z,100131.06
2023-05-15T14:46:44.988Z,100123.97
2023-05-15T14:49:11.739Z,100119.34
2023-05-15T14:51:38.537Z,100120.88
2023-05-15T14:54:05.252Z,100121.59
2023-05-15T14:56:32.171Z,100116.41
2023-05-15T14:59:00.139Z,100106.09
2023-05-15T15:01:27.219Z,100106.91
2023-05-15T15:03:53.802Z,100108.69
2023-05-15T15:06:20.452Z,100108.81
2023-05-15T15:08:46.952Z,100104.44
2023-05-15T15:11:13.775Z,100096.59
2023-05-15T15:13:40.261Z,100102.41
2023-05-15T15:16:07.538Z,100107.34
2023-05-15T15:18:34.337Z,100110.78
2023-05-15T15:21:00.939Z,100114.19
2023-05-15T15:23:27.640Z,100113.50
2023-05-15T15:25:54.122Z,100100.03
2023-05-15T15:28:20.650Z,100112.19
2023-05-15T15:30:47.214Z,100104.72
2023-05-15T15:33:14.225Z,100104.69
2023-05-15T15:35:40.810Z,100097.97
2023-05-15T15:38:11.454Z,100088.63
2023-05-15T15:40:37.963Z,100085.00
2023-05-15T15:43:04.675Z,100087.69
2023-05-15T15:45:31.238Z,100076.38
2023-05-15T15:47:57.793Z,100080.59
2023-05-15T15:50:26.048Z,100085.56
2023-05-15T15:52:52.768Z,100074.38
2023-05-15T15:55:19.269Z,100075.06
2023-05-15T15:57:45.709Z,100074.97
2023-05-15T16:00:12.769Z,100055.94
2023-05-15T16:02:40.828Z,100051.53
2023-05-15T16:05:07.610Z,100052.31
2023-05-15T16:07:34.350Z,100058.22
2023-05-15T16:10:11.788Z,100055.66
2023-05-15T16:12:40.243Z,100054.66
2023-05-15T16:15:20.790Z,100047.78
2023-05-15T16:17:51.006Z,100043.47
2023-05-15T16:20:17.877Z,100040.97
2023-05-15T16:22:44.777Z,100043.38
2023-05-15T16:25:11.144Z,100040.66
2023-05-15T16:27:37.625Z,100045.75
2023-05-15T16:30:04.399Z,100043.97
2023-05-15T16:32:31.134Z,100049.13
2023-05-15T16:34:57.952Z,100054.16
2023-05-15T16:37:24.700Z,100054.28
2023-05-15T16:39:51.226Z,100048.28
2023-05-15T16:42:18.369Z,100052.59
2023-05-15T16:44:45.228Z,100063.00
2023-05-15T16:47:11.582Z,100057.91
2023-05-15T16:49:38.507Z,100071.59
2023-05-15T16:52:05.155Z,100066.69
2023-05-15T16:54:31.759Z,100081.16
2023-05-15T16:56:58.223Z,100088.84
2023-05-15T16:59:24.945Z,100095.78
2023-05-15T17:01:51.740Z,100107.03
2023-05-15T17:04:18.424Z,100101.94
2023-05-15T17:06:45.221Z,100103.84
2023-05-15T17:09:13.197Z,100102.97
2023-05-15T17:11:39.626Z,100110.72
2023-05-15T17:14:06.374Z,100100.34
2023-05-15T17:16:32.870Z,100108.00
2023-05-15T17:19:02.165Z,100108.78
2023-05-15T17:21:28.727Z,100101.03
2023-05-15T17:23:55.466Z,100100.88
2023-05-15T17:26:21.878Z,100098.19
2023-05-15T17:28:48.693Z,100100.81
2023-05-15T17:31:15.418Z,100104.19
2023-05-15T17:33:42.154Z,100100.78
2023-05-15T17:36:08.858Z,100099.84
2023-05-15T17:38:36.683Z,100099.75
2023-05-15T17:41:03.455Z,100101.50
2023-05-15T17:43:30.399Z,100106.75
2023-05-15T17:45:56.744Z,100115.34
2023-05-15T17:48:23.451Z,100109.38
2023-05-15T17:50:50.284Z,100112.09
2023-05-15T17:53:16.659Z,100107.09
2023-05-15T17:55:43.684Z,100111.53
2023-05-15T17:58:10.498Z,100111.63
2023-05-15T18:00:37.054Z,100119.50
2023-05-15T18:03:03.971Z,100112.75
2023-05-15T18:05:30.681Z,100111.13
2023-05-15T18:07:57.113Z,100110.34
2023-05-15T18:10:24.727Z,100117.31
2023-05-15T18:12:51.211Z,100123.31
2023-05-15T18:15:17.717Z,100114.03
2023-05-15T18:17:44.676Z,100114.03
2023-05-15T18:20:12.115Z,100106.56
2023-05-15T18:22:38.561Z,100112.59
2023-05-15T18:25:06.670Z,100106.72
2023-05-15T18:27:33.302Z,100115.41
2023-05-15T18:30:02.069Z,100112.03
2023-05-15T18:32:28.630Z,100122.41
2023-05-15T18:34:55.249Z,100115.59
2023-05-15T18:37:21.700Z,100121.72
2023-05-15T18:39:48.349Z,100123.56
2023-05-15T18:42:15.718Z,100121.13
2023-05-15T18:44:42.907Z,100122.94
2023-05-15T18:47:09.805Z,100120.41
2023-05-15T18:49:36.668Z,100123.84
2023-05-15T18:52:03.348Z,100117.00
2023-05-15T18:54:31.117Z,100119.66
2023-05-15T18:56:57.787Z,100124.03
2023-05-15T18:59:24.301Z,100118.94
2023-05-15T19:01:50.902Z,100118.97
2023-05-15T19:04:17.659Z,100120.78
2023-05-15T19:06:47.125Z,100112.31
2023-05-15T19:09:13.747Z,100115.88
2023-05-15T19:11:40.467Z,100115.94
2023-05-15T19:14:07.178Z,100121.13
2023-05-15T19:16:33.979Z,100122.03
2023-05-15T19:19:00.854Z,100120.31
2023-05-15T19:21:27.466Z,100122.94
2023-05-15T19:23:54.254Z,100122.06
2023-05-15T19:26:22.269Z,100128.84
2023-05-15T19:28:48.977Z,100122.88
2023-05-15T19:31:30.139Z,100133.09
2023-05-15T19:33:57.039Z,100133.94
2023-05-15T19:36:23.848Z,100135.66
2023-05-15T19:38:51.731Z,100137.34
2023-05-15T19:41:18.281Z,100140.69
2023-05-15T19:43:44.830Z,100145.00
2023-05-15T19:46:11.435Z,100152.63
2023-05-15T19:48:37.941Z,100155.25
2023-05-15T19:51:05.537Z,100153.56
2023-05-15T19:53:32.172Z,100151.84
2023-05-15T19:55:58.587Z,100149.22
2023-05-15T19:58:25.387Z,100152.59
2023-05-15T20:00:52.002Z,100155.94
2023-05-15T20:03:19.150Z,100159.19
2023-05-15T20:05:46.121Z,100160.94
2023-05-15T20:08:12.959Z,100166.94
2023-05-15T20:10:40.151Z,100168.69
2023-05-15T20:13:07.369Z,100169.59
2023-05-15T20:15:34.065Z,100177.28
2023-05-15T20:18:01.229Z,100185.78
2023-05-15T20:20:29.302Z,100175.50
2023-05-15T20:22:56.201Z,100178.91
2023-05-15T20:25:24.223Z,100173.91
2023-05-15T20:27:51.135Z,100175.63
2023-05-15T20:30:17.739Z,100174.06
2023-05-15T20:32:47.425Z,100179.91
2023-05-15T20:35:14.056Z,100178.25
2023-05-15T20:37:42.187Z,100182.63
2023-05-15T20:40:12.948Z,100172.38
2023-05-15T20:42:39.955Z,100182.66
2023-05-15T20:45:08.889Z,100177.50
2023-05-15T20:47:36.769Z,100177.59
2023-05-15T20:50:04.272Z,100188.75
2023-05-15T20:52:30.766Z,100182.88
2023-05-15T20:54:58.541Z,100188.88
2023-05-15T20:57:27.113Z,100183.00
2023-05-15T20:59:53.802Z,100176.06
2023-05-15T21:02:20.209Z,100180.22
2023-05-15T21:04:46.782Z,100178.47
2023-05-15T21:07:13.603Z,100185.28
2023-05-15T21:09:40.355Z,100179.31
2023-05-15T21:12:07.290Z,100176.84
2023-05-15T21:14:34.041Z,100170.91
2023-05-15T21:17:01.030Z,100180.34
2023-05-15T21:19:27.597Z,100180.16
2023-05-15T21:21:54.854Z,100179.38
2023-05-15T21:24:21.768Z,100183.53
2023-05-15T21:26:48.908Z,100178.47
2023-05-15T21:29:15.690Z,100183.56
2023-05-15T21:31:42.616Z,100187.81
2023-05-15T21:34:09.447Z,100194.56
2023-05-15T21:36:36.385Z,100193.81
2023-05-15T21:39:03.433Z,100188.53
2023-05-15T21:41:29.957Z,100186.56
2023-05-15T21:43:58.858Z,100186.66
2023-05-15T21:46:25.452Z,100185.03
2023-05-15T21:48:52.285Z,100186.72
2023-05-15T21:51:20.203Z,100195.53
2023-05-15T21:53:47.121Z,100196.44
2023-05-15T21:56:14.612Z,100190.28
2023-05-15T21:58:41.057Z,100196.44
2023-05-15T22:01:07.548Z,100196.41
2023-05-15T22:03:34.395Z,100199.91
2023-05-15T22:06:00.983Z,100199.19
2023-05-15T22:08:27.400Z,100200.91
2023-05-15T22:10:54.040Z,100205.66
2023-05-15T22:13:20.979Z,100201.25
2023-05-15T22:15:47.735Z,100204.78
2023-05-15T22:18:14.465Z,100202.28
2023-05-15T22:20:41.158Z,100202.53
2023-05-15T22:23:07.711Z,100210.97
2023-05-15T22:25:34.376Z,100211.94
2023-05-15T22:28:01.197Z,100215.34
2023-05-15T22:30:28.148Z,100205.97
2023-05-15T22:32:56.435Z,100222.38
2023-05-15T22:35:23.194Z,100213.97
2023-05-15T22:37:50.001Z,100219.03
2023-05-15T22:40:17.173Z,100224.25
2023-05-15T22:42:44.430Z,100223.34
2023-05-15T22:45:12.570Z,100220.63
2023-05-15T22:47:39.377Z,100226.75
2023-05-15T22:50:06.809Z,100233.69
2023-05-15T22:52:34.893Z,100233.69
2023-05-15T22:55:01.484Z,100226.06
2023-05-15T22:57:28.494Z,100220.81
2023-05-15T22:59:55.320Z,100223.41
2023-05-15T23:02:23.606Z,100228.47
2023-05-15T23:04:50.237Z,100233.53
2023-05-15T23:07:16.788Z,100231.94
2023-05-15T23:09:44.171Z,100238.63
2023-05-15T23:12:11.260Z,100242.81
2023-05-15T23:14:38.276Z,100245.25
2023-05-15T23:17:05.380Z,100237.69
2023-05-15T23:19:36.793Z,100241.91
2023-05-15T23:22:03.340Z,100235.06
2023-05-15T23:24:31.432Z,100235.06
2023-05-15T23:26:58.343Z,100240.84
2023-05-15T23:29:24.670Z,100233.22
2023-05-15T23:31:51.526Z,100244.38
2023-05-15T23:34:18.162Z,100247.81
2023-05-15T23:36:45.570Z,100245.16
2023-05-15T23:39:12.010Z,100252.84
2023-05-15T23:41:38.496Z,100245.13
2023-05-15T23:44:05.036Z,100246.94
2023-05-15T23:46:32.129Z,100248.69
2023-05-15T23:48:58.599Z,100258.09
2023-05-15T23:51:25.534Z,100255.44
2023-05-15T23:53:52.503Z,100248.56
2023-05-15T23:56:19.175Z,100251.25
2023-05-15T23:59:06.859Z,100253.84
